Terminal Aerodrome Forecast
Issued by NWS Quad Cities IA IL

Home | Current Version | Previous Version | Text Only | Print | Product List | Glossary On
Versions: 1 2 3 4 5 6 7 8 9 10 11 12 13 14 15 16 17 18
914
FTUS43 KDVN 130117 AAA
TAFMLI
TAF AMD
KMLI 130117Z 1301/1324 31016G24KT P6SM SKC
     FM130300 33013KT P6SM SKC
     FM130500 33007KT P6SM SCT250
     FM132000 29005KT P6SM SCT200=

USA.gov is the U.S. government's official web portal to all federal, state and local government web resources and services.